»·PEaware :: N701GT KMRY-KCRQ

N701GT :: KMRY-KCRQ

FLIGHT INFORMATION

Flight Status: Arrived
Operator: Privately registered:
United States
More flights under this callsign
Pilot: Anonymous 17564 (17564)
Aircraft: BEECH AIRCRAFT SUPER KING AIR COMMUTER
(BE20)
More flights by this aircraft type
Origin: KMRY Monterey Peninsula
United States
Destination: KCRQ McClellan-Palomar
United States
More flights between these airports :: More routes between these airports
Route: +MRY4 SNS SERFR BLOXX LEGOZ2
File this flight plan on PilotEdge
Remarks:
Altitude:
(Current/Filed)
23,000ft
Speed:
(Current/Filed)
300kts
Departed: 24-Aug-18 06:14 PM
Arrived: 24-Aug-18 07:44 PM
Distance/Time
Traveled:
306nm/1:30
Distance/Time
To Go:
Arrived

Flight Plot

Page will automatically refresh every two minutes.


Map Options




Map Legend


Flown Route
Filed Route
Departure Airport
Arrival Airport
Navaid (VOR, NDB)
Fix

Horizontal Profiles

Position Reports

Time Latitude Longitude Heading Altitude Ground
Speed
24-Aug-18 17:47 36.588838 -121.853868 245 209ft 0kts
24-Aug-18 17:48 36.588838 -121.853868 245 209ft 0kts
24-Aug-18 17:49 36.588838 -121.853868 245 209ft 0kts
24-Aug-18 17:50 36.588838 -121.853868 245 209ft 0kts
24-Aug-18 17:51 36.588838 -121.853868 245 209ft 0kts
24-Aug-18 17:52 36.588838 -121.853868 245 209ft 0kts
24-Aug-18 17:53 36.588838 -121.853868 245 209ft 0kts
24-Aug-18 17:54 36.588838 -121.853868 245 209ft 0kts
24-Aug-18 17:55 36.588838 -121.853868 245 209ft 0kts
24-Aug-18 17:56 36.588838 -121.853868 245 209ft 0kts
24-Aug-18 17:57 36.588837 -121.853869 245 209ft 0kts
24-Aug-18 17:58 36.588836 -121.853872 245 209ft 0kts
24-Aug-18 17:59 36.588835 -121.853875 245 209ft 0kts
24-Aug-18 18:00 36.588834 -121.853879 245 209ft 0kts
24-Aug-18 18:01 36.588831 -121.853885 245 209ft 0kts
24-Aug-18 18:02 36.588829 -121.853891 244 209ft 0kts
24-Aug-18 18:03 36.588827 -121.853897 244 209ft 0kts
24-Aug-18 18:04 36.588825 -121.853903 244 209ft 0kts
24-Aug-18 18:05 36.588808 -121.853950 246 209ft 0kts
24-Aug-18 18:06 36.588926 -121.854012 46 209ft 0kts
24-Aug-18 18:07 36.588926 -121.854012 46 209ft 0kts
24-Aug-18 18:08 36.588922 -121.852492 114 209ft 20kts
24-Aug-18 18:09 36.586471 -121.845634 110 209ft 22kts
24-Aug-18 18:10 36.584471 -121.839880 113 209ft 12kts
24-Aug-18 18:11 36.583155 -121.835886 112 209ft 17kts
24-Aug-18 18:12 36.582924 -121.835032 98 209ft 0kts
24-Aug-18 18:13 36.582924 -121.835032 98 209ft 0kts
24-Aug-18 18:14 36.582860 -121.834105 83 209ft 6kts
24-Aug-18 18:15 36.586028 -121.841512 288 225ft 117kts
24-Aug-18 18:16 36.609133 -121.878320 340 2084ft 156kts
24-Aug-18 18:17 36.652985 -121.890846 4 3681ft 165kts
24-Aug-18 18:18 36.666867 -121.840505 94 5212ft 193kts
24-Aug-18 18:19 36.664490 -121.767502 90 7023ft 218kts
24-Aug-18 18:20 36.664161 -121.690583 89 8826ft 225kts
24-Aug-18 18:21 36.654801 -121.624588 132 10415ft 223kts
24-Aug-18 18:22 36.603570 -121.582930 160 12232ft 220kts
24-Aug-18 18:23 36.546439 -121.556234 165 14032ft 218kts
24-Aug-18 18:24 36.489654 -121.532787 166 16002ft 212kts
24-Aug-18 18:25 36.434183 -121.510388 167 17992ft 208kts
24-Aug-18 18:26 36.377422 -121.487716 167 19525ft 222kts
24-Aug-18 18:27 36.317970 -121.463904 166 21024ft 226kts
24-Aug-18 18:28 36.257969 -121.439913 166 22521ft 227kts
24-Aug-18 18:29 36.193743 -121.414421 165 23014ft 260kts
24-Aug-18 18:30 36.121999 -121.385939 165 22984ft 276kts
24-Aug-18 18:31 36.052177 -121.348193 140 22975ft 282kts
24-Aug-18 18:32 36.001449 -121.273289 132 22965ft 284kts
24-Aug-18 18:33 35.951592 -121.197514 133 22958ft 283kts
24-Aug-18 18:34 35.901503 -121.124054 134 22952ft 283kts
24-Aug-18 18:35 35.850419 -121.050253 134 22947ft 282kts
24-Aug-18 18:36 35.799295 -120.976828 134 22944ft 282kts
24-Aug-18 18:37 35.747906 -120.903251 134 22942ft 282kts
24-Aug-18 18:38 35.697499 -120.831254 134 22941ft 282kts
24-Aug-18 18:39 35.646169 -120.758108 134 22944ft 282kts
24-Aug-18 18:40 35.594866 -120.685159 134 22943ft 282kts
24-Aug-18 18:41 35.543269 -120.611956 134 22947ft 282kts
24-Aug-18 18:42 35.491864 -120.539182 134 22959ft 283kts
24-Aug-18 18:43 35.440275 -120.466285 134 22971ft 283kts
24-Aug-18 18:44 35.387111 -120.391413 134 22976ft 294kts
24-Aug-18 18:45 35.332929 -120.315218 134 22977ft 298kts
24-Aug-18 18:46 35.278294 -120.238494 134 22978ft 298kts
24-Aug-18 18:47 35.223725 -120.162059 134 22982ft 298kts
24-Aug-18 18:48 35.169070 -120.085704 134 22993ft 297kts
24-Aug-18 18:49 35.114497 -120.009614 134 22984ft 297kts
24-Aug-18 18:50 35.059811 -119.933543 134 22965ft 298kts
24-Aug-18 18:51 35.005083 -119.857584 134 22961ft 299kts
24-Aug-18 18:52 34.949935 -119.781203 134 22967ft 300kts
24-Aug-18 18:53 34.894938 -119.705188 134 22967ft 301kts
24-Aug-18 18:54 34.839272 -119.628472 134 22945ft 303kts
24-Aug-18 18:55 34.783523 -119.551742 134 22943ft 301kts
24-Aug-18 18:56 34.728192 -119.475760 134 22973ft 299kts
24-Aug-18 18:57 34.672765 -119.399843 134 22991ft 299kts
24-Aug-18 18:58 34.617831 -119.324786 134 22993ft 302kts
24-Aug-18 18:59 34.562213 -119.248909 134 22996ft 300kts
24-Aug-18 19:00 34.507676 -119.174694 134 22990ft 300kts
24-Aug-18 19:01 34.453338 -119.100908 134 22979ft 300kts
24-Aug-18 19:02 34.397711 -119.025527 134 22973ft 300kts
24-Aug-18 19:03 34.342048 -118.950294 134 22966ft 300kts
24-Aug-18 19:04 34.286213 -118.874974 134 22963ft 299kts
24-Aug-18 19:05 34.222000 -118.814119 157 22231ft 288kts
24-Aug-18 19:06 34.151231 -118.778960 160 21062ft 279kts
24-Aug-18 19:07 34.078341 -118.749994 168 19990ft 271kts
24-Aug-18 19:08 34.005364 -118.729984 168 19088ft 267kts
24-Aug-18 19:09 33.933171 -118.710099 167 18189ft 266kts
24-Aug-18 19:10 33.861410 -118.690083 167 17286ft 260kts
24-Aug-18 19:11 33.793236 -118.671027 167 16994ft 240kts
24-Aug-18 19:12 33.726136 -118.653476 170 16106ft 251kts
24-Aug-18 19:13 33.656993 -118.639069 170 15151ft 251kts
24-Aug-18 19:14 33.590839 -118.625273 170 15011ft 230kts
24-Aug-18 19:15 33.524903 -118.611433 170 15023ft 255kts
24-Aug-18 19:16 33.457441 -118.584529 133 14845ft 271kts
24-Aug-18 19:17 33.418576 -118.503407 116 13858ft 286kts
24-Aug-18 19:18 33.382516 -118.418246 117 12805ft 287kts
24-Aug-18 19:19 33.358704 -118.328048 95 11706ft 286kts
24-Aug-18 19:20 33.350757 -118.234483 97 11039ft 275kts
24-Aug-18 19:21 33.339149 -118.144030 98 10365ft 276kts
24-Aug-18 19:22 33.326939 -118.052921 98 9563ft 277kts
24-Aug-18 19:23 33.314764 -117.961788 99 8764ft 278kts
24-Aug-18 19:24 33.302523 -117.870841 99 7966ft 277kts
24-Aug-18 19:25 33.290271 -117.780134 99 7167ft 275kts
24-Aug-18 19:26 33.278126 -117.690673 99 6572ft 270kts
24-Aug-18 19:27 33.266064 -117.602242 99 5972ft 269kts
24-Aug-18 19:28 33.253984 -117.514140 99 5369ft 257kts
24-Aug-18 19:29 33.243292 -117.435889 97 5001ft 221kts
24-Aug-18 19:30 33.248460 -117.364821 82 5010ft 211kts
24-Aug-18 19:31 33.255564 -117.301933 82 4994ft 185kts
24-Aug-18 19:32 33.262671 -117.239356 82 4997ft 191kts
24-Aug-18 19:33 33.269901 -117.176145 82 4990ft 192kts
24-Aug-18 19:34 33.277227 -117.112789 82 4992ft 192kts
24-Aug-18 19:35 33.280711 -117.050263 116 4978ft 177kts
24-Aug-18 19:36 33.239444 -117.030453 172 3596ft 154kts
24-Aug-18 19:37 33.200763 -117.021288 172 3501ft 135kts
24-Aug-18 19:38 33.170758 -117.044682 236 3510ft 142kts
24-Aug-18 19:39 33.156703 -117.087359 260 3491ft 129kts
24-Aug-18 19:40 33.152489 -117.131402 261 2946ft 140kts
24-Aug-18 19:41 33.145107 -117.175974 258 2192ft 113kts
24-Aug-18 19:42 33.139060 -117.213097 258 1404ft 111kts
24-Aug-18 19:43 33.133617 -117.246899 258 792ft 99kts
24-Aug-18 19:44 33.128525 -117.278729 258 304ft 82kts
24-Aug-18 19:45 33.127356 -117.282817 225 304ft 0kts
24-Aug-18 19:46 33.127066 -117.282085 78 304ft 17kts
24-Aug-18 19:47 33.126877 -117.280936 78 304ft 0kts

Navigation Log

Ident Type
Flight plan parsing failed, navigation log unavailable